sensor_id;sensor_type;location;lat;lon;timestamp;P1;durP1;ratioP1;P2;durP2;ratioP2
18407;SDS011;9330;52.210;21.174;2023-12-20T00:00:19;17.98;;;15.48;;
18407;SDS011;9330;52.210;21.174;2023-12-20T00:02:46;20.42;;;15.85;;
18407;SDS011;9330;52.210;21.174;2023-12-20T00:05:13;17.15;;;14.13;;
18407;SDS011;9330;52.210;21.174;2023-12-20T00:07:40;19.63;;;14.50;;
18407;SDS011;9330;52.210;21.174;2023-12-20T00:10:10;18.10;;;14.75;;
18407;SDS011;9330;52.210;21.174;2023-12-20T00:12:46;18.35;;;14.23;;
18407;SDS011;9330;52.210;21.174;2023-12-20T00:15:13;17.33;;;14.40;;
18407;SDS011;9330;52.210;21.174;2023-12-20T00:17:39;15.95;;;13.13;;
18407;SDS011;9330;52.210;21.174;2023-12-20T00:20:07;14.18;;;11.77;;
18407;SDS011;9330;52.210;21.174;2023-12-20T00:22:34;14.95;;;13.05;;
18407;SDS011;9330;52.210;21.174;2023-12-20T00:25:01;14.20;;;12.10;;
18407;SDS011;9330;52.210;21.174;2023-12-20T00:27:29;15.20;;;11.85;;
18407;SDS011;9330;52.210;21.174;2023-12-20T00:29:56;15.80;;;12.80;;
18407;SDS011;9330;52.210;21.174;2023-12-20T00:32:23;13.55;;;11.73;;
18407;SDS011;9330;52.210;21.174;2023-12-20T00:34:50;14.40;;;12.65;;
18407;SDS011;9330;52.210;21.174;2023-12-20T00:37:16;15.48;;;13.38;;
18407;SDS011;9330;52.210;21.174;2023-12-20T00:39:43;15.48;;;12.15;;
18407;SDS011;9330;52.210;21.174;2023-12-20T00:42:10;14.00;;;11.77;;
18407;SDS011;9330;52.210;21.174;2023-12-20T00:44:39;14.20;;;12.18;;
18407;SDS011;9330;52.210;21.174;2023-12-20T00:47:05;15.63;;;12.82;;
18407;SDS011;9330;52.210;21.174;2023-12-20T00:49:32;15.50;;;11.90;;
18407;SDS011;9330;52.210;21.174;2023-12-20T00:51:59;13.57;;;11.18;;
18407;SDS011;9330;52.210;21.174;2023-12-20T00:54:26;13.77;;;10.95;;
18407;SDS011;9330;52.210;21.174;2023-12-20T00:56:53;11.32;;;9.82;;
18407;SDS011;9330;52.210;21.174;2023-12-20T00:59:20;14.55;;;12.27;;
18407;SDS011;9330;52.210;21.174;2023-12-20T01:01:48;12.20;;;10.18;;
18407;SDS011;9330;52.210;21.174;2023-12-20T01:04:16;12.18;;;10.88;;
18407;SDS011;9330;52.210;21.174;2023-12-20T01:06:43;12.02;;;10.73;;
18407;SDS011;9330;52.210;21.174;2023-12-20T01:09:10;13.35;;;10.38;;
18407;SDS011;9330;52.210;21.174;2023-12-20T01:11:36;14.32;;;11.70;;
18407;SDS011;9330;52.210;21.174;2023-12-20T01:14:03;11.73;;;9.70;;
18407;SDS011;9330;52.210;21.174;2023-12-20T01:16:30;13.68;;;10.75;;
18407;SDS011;9330;52.210;21.174;2023-12-20T01:18:58;13.07;;;10.00;;
18407;SDS011;9330;52.210;21.174;2023-12-20T01:21:25;14.38;;;11.40;;
18407;SDS011;9330;52.210;21.174;2023-12-20T01:23:52;12.23;;;10.45;;
18407;SDS011;9330;52.210;21.174;2023-12-20T01:26:18;12.98;;;10.25;;
18407;SDS011;9330;52.210;21.174;2023-12-20T01:28:45;10.73;;;9.02;;
18407;SDS011;9330;52.210;21.174;2023-12-20T01:31:12;12.57;;;10.48;;
18407;SDS011;9330;52.210;21.174;2023-12-20T01:33:39;12.90;;;9.50;;
18407;SDS011;9330;52.210;21.174;2023-12-20T01:36:07;12.40;;;10.15;;
18407;SDS011;9330;52.210;21.174;2023-12-20T01:38:36;9.52;;;8.32;;
18407;SDS011;9330;52.210;21.174;2023-12-20T01:41:03;11.20;;;9.00;;
18407;SDS011;9330;52.210;21.174;2023-12-20T01:43:30;11.88;;;10.15;;
18407;SDS011;9330;52.210;21.174;2023-12-20T01:45:57;11.65;;;9.15;;
18407;SDS011;9330;52.210;21.174;2023-12-20T01:48:24;10.95;;;9.55;;
18407;SDS011;9330;52.210;21.174;2023-12-20T01:50:52;10.55;;;8.77;;
18407;SDS011;9330;52.210;21.174;2023-12-20T01:53:21;11.57;;;9.70;;
18407;SDS011;9330;52.210;21.174;2023-12-20T01:55:51;10.20;;;9.15;;
18407;SDS011;9330;52.210;21.174;2023-12-20T01:58:20;11.45;;;9.60;;
18407;SDS011;9330;52.210;21.174;2023-12-20T02:00:48;12.77;;;9.82;;
18407;SDS011;9330;52.210;21.174;2023-12-20T02:03:15;10.63;;;8.30;;
18407;SDS011;9330;52.210;21.174;2023-12-20T02:05:43;9.52;;;7.93;;
18407;SDS011;9330;52.210;21.174;2023-12-20T02:08:10;9.30;;;7.90;;
18407;SDS011;9330;52.210;21.174;2023-12-20T02:10:38;9.55;;;8.27;;
18407;SDS011;9330;52.210;21.174;2023-12-20T02:13:08;9.02;;;8.05;;
18407;SDS011;9330;52.210;21.174;2023-12-20T02:15:35;10.98;;;8.65;;
18407;SDS011;9330;52.210;21.174;2023-12-20T02:18:03;10.25;;;8.18;;
18407;SDS011;9330;52.210;21.174;2023-12-20T02:20:30;10.77;;;9.40;;
18407;SDS011;9330;52.210;21.174;2023-12-20T02:22:58;10.10;;;8.38;;
18407;SDS011;9330;52.210;21.174;2023-12-20T02:25:26;9.68;;;8.10;;
18407;SDS011;9330;52.210;21.174;2023-12-20T02:27:52;11.57;;;9.32;;
18407;SDS011;9330;52.210;21.174;2023-12-20T02:30:20;9.05;;;7.70;;
18407;SDS011;9330;52.210;21.174;2023-12-20T02:32:47;8.52;;;7.53;;
18407;SDS011;9330;52.210;21.174;2023-12-20T02:35:15;11.75;;;9.30;;
18407;SDS011;9330;52.210;21.174;2023-12-20T02:37:41;9.15;;;7.97;;
18407;SDS011;9330;52.210;21.174;2023-12-20T02:40:11;7.55;;;6.82;;
18407;SDS011;9330;52.210;21.174;2023-12-20T02:42:40;7.55;;;6.75;;
18407;SDS011;9330;52.210;21.174;2023-12-20T02:45:07;7.85;;;6.72;;
18407;SDS011;9330;52.210;21.174;2023-12-20T02:47:34;7.25;;;6.13;;
18407;SDS011;9330;52.210;21.174;2023-12-20T02:50:01;7.07;;;6.32;;
18407;SDS011;9330;52.210;21.174;2023-12-20T02:52:28;7.90;;;7.05;;
18407;SDS011;9330;52.210;21.174;2023-12-20T02:54:57;7.95;;;6.65;;
18407;SDS011;9330;52.210;21.174;2023-12-20T02:57:26;8.05;;;6.75;;
18407;SDS011;9330;52.210;21.174;2023-12-20T02:59:52;7.15;;;6.15;;
18407;SDS011;9330;52.210;21.174;2023-12-20T03:02:19;6.13;;;5.50;;
18407;SDS011;9330;52.210;21.174;2023-12-20T03:04:46;6.70;;;5.90;;
18407;SDS011;9330;52.210;21.174;2023-12-20T03:07:13;5.60;;;4.97;;
18407;SDS011;9330;52.210;21.174;2023-12-20T03:09:39;8.88;;;7.10;;
18407;SDS011;9330;52.210;21.174;2023-12-20T03:12:06;6.80;;;4.95;;
18407;SDS011;9330;52.210;21.174;2023-12-20T03:14:35;5.63;;;5.00;;
18407;SDS011;9330;52.210;21.174;2023-12-20T03:17:02;6.05;;;4.90;;
18407;SDS011;9330;52.210;21.174;2023-12-20T03:19:29;5.30;;;4.50;;
18407;SDS011;9330;52.210;21.174;2023-12-20T03:21:55;5.70;;;4.63;;
18407;SDS011;9330;52.210;21.174;2023-12-20T03:24:22;5.30;;;4.20;;
18407;SDS011;9330;52.210;21.174;2023-12-20T03:26:49;5.45;;;3.78;;
18407;SDS011;9330;52.210;21.174;2023-12-20T03:29:16;3.70;;;2.97;;
18407;SDS011;9330;52.210;21.174;2023-12-20T03:31:44;3.60;;;3.30;;
18407;SDS011;9330;52.210;21.174;2023-12-20T03:34:11;4.03;;;3.55;;
18407;SDS011;9330;52.210;21.174;2023-12-20T03:36:38;3.90;;;3.47;;
18407;SDS011;9330;52.210;21.174;2023-12-20T03:39:05;3.55;;;3.20;;
18407;SDS011;9330;52.210;21.174;2023-12-20T03:41:32;3.85;;;3.17;;
18407;SDS011;9330;52.210;21.174;2023-12-20T03:44:01;4.07;;;3.30;;
18407;SDS011;9330;52.210;21.174;2023-12-20T03:46:28;4.43;;;3.63;;
18407;SDS011;9330;52.210;21.174;2023-12-20T03:48:56;4.00;;;3.30;;
18407;SDS011;9330;52.210;21.174;2023-12-20T03:51:23;3.53;;;3.22;;
18407;SDS011;9330;52.210;21.174;2023-12-20T03:53:50;4.20;;;3.75;;
18407;SDS011;9330;52.210;21.174;2023-12-20T03:56:16;3.33;;;3.03;;
18407;SDS011;9330;52.210;21.174;2023-12-20T03:58:43;3.38;;;2.80;;
18407;SDS011;9330;52.210;21.174;2023-12-20T04:01:10;4.05;;;3.30;;
18407;SDS011;9330;52.210;21.174;2023-12-20T04:03:37;3.95;;;2.90;;
18407;SDS011;9330;52.210;21.174;2023-12-20T04:06:06;3.88;;;3.40;;
18407;SDS011;9330;52.210;21.174;2023-12-20T04:08:33;3.47;;;2.85;;
18407;SDS011;9330;52.210;21.174;2023-12-20T04:11:00;3.03;;;2.55;;
18407;SDS011;9330;52.210;21.174;2023-12-20T04:13:27;4.60;;;3.60;;
18407;SDS011;9330;52.210;21.174;2023-12-20T04:15:53;5.25;;;3.50;;
18407;SDS011;9330;52.210;21.174;2023-12-20T04:18:20;3.15;;;2.85;;
18407;SDS011;9330;52.210;21.174;2023-12-20T04:20:47;3.28;;;2.97;;
18407;SDS011;9330;52.210;21.174;2023-12-20T04:23:15;4.28;;;3.75;;
18407;SDS011;9330;52.210;21.174;2023-12-20T04:25:42;5.07;;;3.95;;
18407;SDS011;9330;52.210;21.174;2023-12-20T04:28:09;3.60;;;3.20;;
18407;SDS011;9330;52.210;21.174;2023-12-20T04:30:36;4.70;;;3.80;;
18407;SDS011;9330;52.210;21.174;2023-12-20T04:33:03;3.65;;;3.28;;
18407;SDS011;9330;52.210;21.174;2023-12-20T04:35:30;3.55;;;3.05;;
18407;SDS011;9330;52.210;21.174;2023-12-20T04:37:56;3.58;;;3.10;;
18407;SDS011;9330;52.210;21.174;2023-12-20T04:40:25;3.97;;;3.25;;
18407;SDS011;9330;52.210;21.174;2023-12-20T04:42:52;3.92;;;3.53;;
18407;SDS011;9330;52.210;21.174;2023-12-20T04:45:18;4.10;;;3.70;;
18407;SDS011;9330;52.210;21.174;2023-12-20T04:47:45;5.13;;;4.28;;
18407;SDS011;9330;52.210;21.174;2023-12-20T04:50:13;5.68;;;4.65;;
18407;SDS011;9330;52.210;21.174;2023-12-20T04:52:40;6.15;;;5.55;;
18407;SDS011;9330;52.210;21.174;2023-12-20T04:55:07;7.28;;;6.10;;
18407;SDS011;9330;52.210;21.174;2023-12-20T04:57:36;7.85;;;6.60;;
18407;SDS011;9330;52.210;21.174;2023-12-20T05:00:03;8.48;;;7.13;;
18407;SDS011;9330;52.210;21.174;2023-12-20T05:02:30;7.22;;;6.53;;
18407;SDS011;9330;52.210;21.174;2023-12-20T05:04:57;8.43;;;7.53;;
18407;SDS011;9330;52.210;21.174;2023-12-20T05:07:24;8.15;;;7.35;;
18407;SDS011;9330;52.210;21.174;2023-12-20T05:09:51;7.82;;;7.03;;
18407;SDS011;9330;52.210;21.174;2023-12-20T05:12:18;9.50;;;8.50;;
18407;SDS011;9330;52.210;21.174;2023-12-20T05:14:46;9.07;;;8.18;;
18407;SDS011;9330;52.210;21.174;2023-12-20T05:17:13;7.80;;;7.00;;
18407;SDS011;9330;52.210;21.174;2023-12-20T05:19:40;7.53;;;6.75;;
18407;SDS011;9330;52.210;21.174;2023-12-20T05:22:07;9.13;;;8.07;;
18407;SDS011;9330;52.210;21.174;2023-12-20T05:24:33;8.30;;;7.07;;
18407;SDS011;9330;52.210;21.174;2023-12-20T05:27:00;9.88;;;8.38;;
18407;SDS011;9330;52.210;21.174;2023-12-20T05:29:27;7.55;;;6.75;;
18407;SDS011;9330;52.210;21.174;2023-12-20T05:31:55;8.35;;;7.53;;
18407;SDS011;9330;52.210;21.174;2023-12-20T05:34:24;7.18;;;6.18;;
18407;SDS011;9330;52.210;21.174;2023-12-20T05:36:51;9.05;;;7.15;;
18407;SDS011;9330;52.210;21.174;2023-12-20T05:39:18;9.27;;;8.10;;
18407;SDS011;9330;52.210;21.174;2023-12-20T05:41:45;7.93;;;7.13;;
18407;SDS011;9330;52.210;21.174;2023-12-20T05:44:12;7.57;;;6.78;;
18407;SDS011;9330;52.210;21.174;2023-12-20T05:46:39;8.23;;;7.43;;
18407;SDS011;9330;52.210;21.174;2023-12-20T05:49:07;8.68;;;7.78;;
18407;SDS011;9330;52.210;21.174;2023-12-20T05:51:34;8.80;;;7.93;;
18407;SDS011;9330;52.210;21.174;2023-12-20T05:54:00;8.60;;;7.70;;
18407;SDS011;9330;52.210;21.174;2023-12-20T05:56:27;8.60;;;7.70;;
18407;SDS011;9330;52.210;21.174;2023-12-20T05:58:54;9.35;;;8.43;;
18407;SDS011;9330;52.210;21.174;2023-12-20T06:01:21;9.13;;;8.05;;
18407;SDS011;9330;52.210;21.174;2023-12-20T06:03:48;8.00;;;7.13;;
18407;SDS011;9330;52.210;21.174;2023-12-20T06:06:17;10.73;;;8.35;;
18407;SDS011;9330;52.210;21.174;2023-12-20T06:08:43;9.88;;;8.40;;
18407;SDS011;9330;52.210;21.174;2023-12-20T06:11:10;9.85;;;8.60;;
18407;SDS011;9330;52.210;21.174;2023-12-20T06:13:38;10.45;;;8.98;;
18407;SDS011;9330;52.210;21.174;2023-12-20T06:16:05;9.93;;;8.65;;
18407;SDS011;9330;52.210;21.174;2023-12-20T06:18:32;11.85;;;9.85;;
18407;SDS011;9330;52.210;21.174;2023-12-20T06:20:59;10.75;;;9.20;;
18407;SDS011;9330;52.210;21.174;2023-12-20T06:23:28;10.30;;;9.20;;
18407;SDS011;9330;52.210;21.174;2023-12-20T06:25:55;11.75;;;9.18;;
18407;SDS011;9330;52.210;21.174;2023-12-20T06:28:22;11.35;;;9.40;;
18407;SDS011;9330;52.210;21.174;2023-12-20T06:30:49;12.52;;;10.77;;
18407;SDS011;9330;52.210;21.174;2023-12-20T06:33:17;9.93;;;8.93;;
18407;SDS011;9330;52.210;21.174;2023-12-20T06:35:46;12.13;;;10.80;;
18407;SDS011;9330;52.210;21.174;2023-12-20T06:38:13;13.70;;;10.88;;
18407;SDS011;9330;52.210;21.174;2023-12-20T06:40:42;11.50;;;9.75;;
18407;SDS011;9330;52.210;21.174;2023-12-20T06:43:09;11.77;;;9.77;;
18407;SDS011;9330;52.210;21.174;2023-12-20T06:45:35;11.32;;;10.13;;
18407;SDS011;9330;52.210;21.174;2023-12-20T06:48:03;10.30;;;8.40;;
18407;SDS011;9330;52.210;21.174;2023-12-20T06:50:30;9.80;;;8.80;;
18407;SDS011;9330;52.210;21.174;2023-12-20T06:52:57;10.48;;;8.75;;
18407;SDS011;9330;52.210;21.174;2023-12-20T06:55:24;9.93;;;8.90;;
18407;SDS011;9330;52.210;21.174;2023-12-20T06:57:52;9.02;;;8.13;;
18407;SDS011;9330;52.210;21.174;2023-12-20T07:00:19;9.68;;;7.90;;
18407;SDS011;9330;52.210;21.174;2023-12-20T07:02:46;9.18;;;7.15;;
18407;SDS011;9330;52.210;21.174;2023-12-20T07:05:15;8.52;;;7.63;;
18407;SDS011;9330;52.210;21.174;2023-12-20T07:07:44;9.07;;;7.97;;
18407;SDS011;9330;52.210;21.174;2023-12-20T07:10:11;8.57;;;7.78;;
18407;SDS011;9330;52.210;21.174;2023-12-20T07:12:38;8.43;;;7.43;;
18407;SDS011;9330;52.210;21.174;2023-12-20T07:15:07;8.65;;;7.53;;
18407;SDS011;9330;52.210;21.174;2023-12-20T07:17:34;8.57;;;7.63;;
18407;SDS011;9330;52.210;21.174;2023-12-20T07:20:02;8.00;;;7.20;;
18407;SDS011;9330;52.210;21.174;2023-12-20T07:22:31;8.63;;;7.72;;
18407;SDS011;9330;52.210;21.174;2023-12-20T07:24:58;8.52;;;7.38;;
18407;SDS011;9330;52.210;21.174;2023-12-20T07:27:25;10.15;;;8.63;;
18407;SDS011;9330;52.210;21.174;2023-12-20T07:29:52;8.77;;;7.78;;
18407;SDS011;9330;52.210;21.174;2023-12-20T07:32:20;7.38;;;6.68;;
18407;SDS011;9330;52.210;21.174;2023-12-20T07:34:47;8.57;;;7.72;;
18407;SDS011;9330;52.210;21.174;2023-12-20T07:37:14;9.15;;;6.95;;
18407;SDS011;9330;52.210;21.174;2023-12-20T07:39:41;7.95;;;7.15;;
18407;SDS011;9330;52.210;21.174;2023-12-20T07:42:08;8.80;;;7.90;;
18407;SDS011;9330;52.210;21.174;2023-12-20T07:44:35;10.38;;;8.15;;
18407;SDS011;9330;52.210;21.174;2023-12-20T07:47:02;9.68;;;8.68;;
18407;SDS011;9330;52.210;21.174;2023-12-20T07:49:31;9.65;;;7.85;;
18407;SDS011;9330;52.210;21.174;2023-12-20T07:51:58;9.40;;;8.07;;
18407;SDS011;9330;52.210;21.174;2023-12-20T07:54:25;10.27;;;7.93;;
18407;SDS011;9330;52.210;21.174;2023-12-20T07:56:52;8.43;;;7.53;;
18407;SDS011;9330;52.210;21.174;2023-12-20T07:59:18;9.38;;;8.48;;
18407;SDS011;9330;52.210;21.174;2023-12-20T08:01:45;9.75;;;8.75;;
18407;SDS011;9330;52.210;21.174;2023-12-20T08:04:12;10.10;;;9.00;;
18407;SDS011;9330;52.210;21.174;2023-12-20T08:06:40;10.27;;;8.90;;
18407;SDS011;9330;52.210;21.174;2023-12-20T08:09:07;8.30;;;7.50;;
18407;SDS011;9330;52.210;21.174;2023-12-20T08:11:34;8.38;;;7.53;;
18407;SDS011;9330;52.210;21.174;2023-12-20T08:14:01;8.27;;;7.47;;
18407;SDS011;9330;52.210;21.174;2023-12-20T08:16:27;8.93;;;8.02;;
18407;SDS011;9330;52.210;21.174;2023-12-20T08:18:54;8.50;;;7.70;;
18407;SDS011;9330;52.210;21.174;2023-12-20T08:21:21;9.88;;;7.82;;
18407;SDS011;9330;52.210;21.174;2023-12-20T08:23:49;8.35;;;7.55;;
18407;SDS011;9330;52.210;21.174;2023-12-20T08:26:18;7.78;;;7.03;;
18407;SDS011;9330;52.210;21.174;2023-12-20T08:28:46;8.32;;;7.13;;
18407;SDS011;9330;52.210;21.174;2023-12-20T08:31:14;9.85;;;8.60;;
18407;SDS011;9330;52.210;21.174;2023-12-20T08:33:41;9.13;;;7.32;;
18407;SDS011;9330;52.210;21.174;2023-12-20T08:36:09;7.60;;;6.70;;
18407;SDS011;9330;52.210;21.174;2023-12-20T08:38:36;7.60;;;6.80;;
18407;SDS011;9330;52.210;21.174;2023-12-20T08:41:04;8.85;;;6.85;;
18407;SDS011;9330;52.210;21.174;2023-12-20T08:43:31;7.25;;;6.55;;
18407;SDS011;9330;52.210;21.174;2023-12-20T08:45:58;7.13;;;6.43;;
18407;SDS011;9330;52.210;21.174;2023-12-20T08:48:25;9.27;;;7.03;;
18407;SDS011;9330;52.210;21.174;2023-12-20T08:50:52;7.60;;;6.32;;
18407;SDS011;9330;52.210;21.174;2023-12-20T08:53:18;6.40;;;5.28;;
18407;SDS011;9330;52.210;21.174;2023-12-20T08:55:46;7.60;;;6.80;;
18407;SDS011;9330;52.210;21.174;2023-12-20T08:58:14;6.82;;;5.57;;
18407;SDS011;9330;52.210;21.174;2023-12-20T09:00:42;8.02;;;6.90;;
18407;SDS011;9330;52.210;21.174;2023-12-20T09:03:08;6.78;;;5.97;;
18407;SDS011;9330;52.210;21.174;2023-12-20T09:05:35;6.28;;;5.68;;
18407;SDS011;9330;52.210;21.174;2023-12-20T09:08:02;7.97;;;6.25;;
18407;SDS011;9330;52.210;21.174;2023-12-20T09:10:30;6.82;;;6.05;;
18407;SDS011;9330;52.210;21.174;2023-12-20T09:12:57;7.13;;;6.43;;
18407;SDS011;9330;52.210;21.174;2023-12-20T09:15:25;7.85;;;6.75;;
18407;SDS011;9330;52.210;21.174;2023-12-20T09:17:54;9.23;;;6.10;;
18407;SDS011;9330;52.210;21.174;2023-12-20T09:20:20;8.88;;;6.82;;
18407;SDS011;9330;52.210;21.174;2023-12-20T09:22:48;8.23;;;6.05;;
18407;SDS011;9330;52.210;21.174;2023-12-20T09:25:15;9.45;;;7.35;;
18407;SDS011;9330;52.210;21.174;2023-12-20T09:27:42;7.63;;;6.82;;
18407;SDS011;9330;52.210;21.174;2023-12-20T09:30:09;7.60;;;6.63;;
18407;SDS011;9330;52.210;21.174;2023-12-20T09:32:38;7.47;;;6.38;;
18407;SDS011;9330;52.210;21.174;2023-12-20T09:35:05;8.15;;;6.85;;
18407;SDS011;9330;52.210;21.174;2023-12-20T09:37:33;9.35;;;7.57;;
18407;SDS011;9330;52.210;21.174;2023-12-20T09:40:00;6.47;;;5.78;;
18407;SDS011;9330;52.210;21.174;2023-12-20T09:42:29;7.95;;;6.57;;
18407;SDS011;9330;52.210;21.174;2023-12-20T09:45:06;8.48;;;6.28;;
18407;SDS011;9330;52.210;21.174;2023-12-20T09:47:35;8.40;;;6.97;;
18407;SDS011;9330;52.210;21.174;2023-12-20T09:50:04;7.55;;;6.65;;
18407;SDS011;9330;52.210;21.174;2023-12-20T09:52:32;7.72;;;6.70;;
18407;SDS011;9330;52.210;21.174;2023-12-20T09:55:00;7.68;;;6.47;;
18407;SDS011;9330;52.210;21.174;2023-12-20T09:57:30;8.02;;;6.28;;
18407;SDS011;9330;52.210;21.174;2023-12-20T09:59:57;9.00;;;6.93;;
18407;SDS011;9330;52.210;21.174;2023-12-20T10:02:24;7.38;;;5.90;;
18407;SDS011;9330;52.210;21.174;2023-12-20T10:04:54;8.98;;;6.20;;
18407;SDS011;9330;52.210;21.174;2023-12-20T10:07:21;7.25;;;6.50;;
18407;SDS011;9330;52.210;21.174;2023-12-20T10:09:48;8.82;;;6.40;;
18407;SDS011;9330;52.210;21.174;2023-12-20T10:12:17;8.48;;;6.70;;
18407;SDS011;9330;52.210;21.174;2023-12-20T10:14:44;7.57;;;6.65;;
18407;SDS011;9330;52.210;21.174;2023-12-20T10:17:10;8.25;;;7.07;;
18407;SDS011;9330;52.210;21.174;2023-12-20T10:19:37;6.63;;;5.80;;
18407;SDS011;9330;52.210;21.174;2023-12-20T10:22:05;6.97;;;5.85;;
18407;SDS011;9330;52.210;21.174;2023-12-20T10:24:32;7.55;;;6.43;;
18407;SDS011;9330;52.210;21.174;2023-12-20T10:27:02;8.45;;;6.75;;
18407;SDS011;9330;52.210;21.174;2023-12-20T10:29:33;6.80;;;5.70;;
18407;SDS011;9330;52.210;21.174;2023-12-20T10:32:01;7.47;;;5.70;;
18407;SDS011;9330;52.210;21.174;2023-12-20T10:34:48;7.13;;;6.20;;
18407;SDS011;9330;52.210;21.174;2023-12-20T10:37:16;6.45;;;5.55;;
18407;SDS011;9330;52.210;21.174;2023-12-20T10:39:43;5.63;;;4.97;;
18407;SDS011;9330;52.210;21.174;2023-12-20T10:42:15;5.72;;;5.13;;
18407;SDS011;9330;52.210;21.174;2023-12-20T10:44:43;6.57;;;5.90;;
18407;SDS011;9330;52.210;21.174;2023-12-20T10:47:10;7.28;;;6.25;;
18407;SDS011;9330;52.210;21.174;2023-12-20T10:49:39;6.07;;;4.93;;
18407;SDS011;9330;52.210;21.174;2023-12-20T10:52:08;5.88;;;5.03;;
18407;SDS011;9330;52.210;21.174;2023-12-20T10:54:38;7.20;;;5.80;;
18407;SDS011;9330;52.210;21.174;2023-12-20T10:57:06;6.75;;;5.20;;
18407;SDS011;9330;52.210;21.174;2023-12-20T10:59:33;5.85;;;5.07;;
18407;SDS011;9330;52.210;21.174;2023-12-20T11:02:03;7.75;;;6.57;;
18407;SDS011;9330;52.210;21.174;2023-12-20T11:07:18;8.02;;;5.90;;
18407;SDS011;9330;52.210;21.174;2023-12-20T11:09:54;6.72;;;5.05;;
18407;SDS011;9330;52.210;21.174;2023-12-20T11:12:28;6.03;;;5.35;;
18407;SDS011;9330;52.210;21.174;2023-12-20T11:15:04;6.60;;;5.20;;
18407;SDS011;9330;52.210;21.174;2023-12-20T11:17:32;7.80;;;6.43;;
18407;SDS011;9330;52.210;21.174;2023-12-20T11:20:06;6.40;;;5.70;;
18407;SDS011;9330;52.210;21.174;2023-12-20T11:22:37;5.97;;;5.15;;
18407;SDS011;9330;52.210;21.174;2023-12-20T11:25:08;7.65;;;5.93;;
18407;SDS011;9330;52.210;21.174;2023-12-20T11:27:37;6.95;;;5.40;;
18407;SDS011;9330;52.210;21.174;2023-12-20T11:30:08;5.75;;;5.15;;
18407;SDS011;9330;52.210;21.174;2023-12-20T11:32:35;6.38;;;5.22;;
18407;SDS011;9330;52.210;21.174;2023-12-20T11:35:16;7.00;;;5.57;;
18407;SDS011;9330;52.210;21.174;2023-12-20T11:37:45;5.85;;;5.10;;
18407;SDS011;9330;52.210;21.174;2023-12-20T11:40:14;6.43;;;5.50;;
18407;SDS011;9330;52.210;21.174;2023-12-20T11:42:43;6.10;;;5.50;;
18407;SDS011;9330;52.210;21.174;2023-12-20T11:45:11;6.93;;;6.20;;
18407;SDS011;9330;52.210;21.174;2023-12-20T11:47:41;8.07;;;6.63;;
18407;SDS011;9330;52.210;21.174;2023-12-20T11:50:09;8.20;;;6.65;;
18407;SDS011;9330;52.210;21.174;2023-12-20T11:52:36;7.28;;;5.80;;
18407;SDS011;9330;52.210;21.174;2023-12-20T11:55:03;6.95;;;5.93;;
18407;SDS011;9330;52.210;21.174;2023-12-20T11:57:32;7.13;;;5.63;;
18407;SDS011;9330;52.210;21.174;2023-12-20T11:59:59;7.72;;;6.80;;
18407;SDS011;9330;52.210;21.174;2023-12-20T12:02:26;7.35;;;6.60;;
18407;SDS011;9330;52.210;21.174;2023-12-20T12:04:53;10.05;;;6.25;;
18407;SDS011;9330;52.210;21.174;2023-12-20T12:07:21;7.20;;;5.93;;
18407;SDS011;9330;52.210;21.174;2023-12-20T12:09:48;7.53;;;6.78;;
18407;SDS011;9330;52.210;21.174;2023-12-20T12:12:15;6.65;;;5.95;;
18407;SDS011;9330;52.210;21.174;2023-12-20T12:14:44;8.52;;;6.90;;
18407;SDS011;9330;52.210;21.174;2023-12-20T12:17:11;6.90;;;6.20;;
18407;SDS011;9330;52.210;21.174;2023-12-20T12:19:38;9.10;;;6.80;;
18407;SDS011;9330;52.210;21.174;2023-12-20T12:22:06;6.95;;;6.00;;
18407;SDS011;9330;52.210;21.174;2023-12-20T12:24:35;7.55;;;6.72;;
18407;SDS011;9330;52.210;21.174;2023-12-20T12:27:03;6.43;;;5.75;;
18407;SDS011;9330;52.210;21.174;2023-12-20T12:29:32;10.05;;;8.57;;
18407;SDS011;9330;52.210;21.174;2023-12-20T12:32:00;8.38;;;7.35;;
18407;SDS011;9330;52.210;21.174;2023-12-20T12:34:27;8.40;;;7.45;;
18407;SDS011;9330;52.210;21.174;2023-12-20T12:36:54;8.55;;;7.65;;
18407;SDS011;9330;52.210;21.174;2023-12-20T12:39:22;8.32;;;7.40;;
18407;SDS011;9330;52.210;21.174;2023-12-20T12:41:50;9.07;;;7.32;;
18407;SDS011;9330;52.210;21.174;2023-12-20T12:44:16;8.77;;;7.03;;
18407;SDS011;9330;52.210;21.174;2023-12-20T12:46:44;7.75;;;6.97;;
18407;SDS011;9330;52.210;21.174;2023-12-20T12:49:13;7.75;;;6.95;;
18407;SDS011;9330;52.210;21.174;2023-12-20T12:51:40;7.72;;;6.93;;
18407;SDS011;9330;52.210;21.174;2023-12-20T12:54:06;9.23;;;7.28;;
18407;SDS011;9330;52.210;21.174;2023-12-20T12:56:34;8.70;;;7.82;;
18407;SDS011;9330;52.210;21.174;2023-12-20T12:59:01;8.25;;;7.10;;
18407;SDS011;9330;52.210;21.174;2023-12-20T13:01:28;7.95;;;6.97;;
18407;SDS011;9330;52.210;21.174;2023-12-20T13:03:55;7.15;;;6.28;;
18407;SDS011;9330;52.210;21.174;2023-12-20T13:06:23;8.48;;;7.50;;
18407;SDS011;9330;52.210;21.174;2023-12-20T13:08:50;8.18;;;7.05;;
18407;SDS011;9330;52.210;21.174;2023-12-20T13:11:17;10.73;;;8.88;;
18407;SDS011;9330;52.210;21.174;2023-12-20T13:13:44;10.63;;;8.90;;
18407;SDS011;9330;52.210;21.174;2023-12-20T13:16:11;10.25;;;8.40;;
18407;SDS011;9330;52.210;21.174;2023-12-20T13:18:39;11.02;;;9.50;;
18407;SDS011;9330;52.210;21.174;2023-12-20T13:21:07;9.48;;;8.45;;
18407;SDS011;9330;52.210;21.174;2023-12-20T13:23:35;9.82;;;8.65;;
18407;SDS011;9330;52.210;21.174;2023-12-20T13:26:02;9.50;;;8.50;;
18407;SDS011;9330;52.210;21.174;2023-12-20T13:28:29;11.18;;;8.98;;
18407;SDS011;9330;52.210;21.174;2023-12-20T13:30:56;9.68;;;8.48;;
18407;SDS011;9330;52.210;21.174;2023-12-20T13:33:23;10.45;;;9.27;;
18407;SDS011;9330;52.210;21.174;2023-12-20T13:35:50;11.68;;;9.38;;
18407;SDS011;9330;52.210;21.174;2023-12-20T13:38:17;11.77;;;9.48;;
18407;SDS011;9330;52.210;21.174;2023-12-20T13:40:45;11.10;;;9.00;;
18407;SDS011;9330;52.210;21.174;2023-12-20T13:43:12;13.35;;;10.27;;
18407;SDS011;9330;52.210;21.174;2023-12-20T13:45:39;10.57;;;8.50;;
18407;SDS011;9330;52.210;21.174;2023-12-20T13:48:07;9.77;;;8.18;;
18407;SDS011;9330;52.210;21.174;2023-12-20T13:50:33;10.45;;;8.80;;
18407;SDS011;9330;52.210;21.174;2023-12-20T13:53:00;10.48;;;8.95;;
18407;SDS011;9330;52.210;21.174;2023-12-20T13:55:29;10.60;;;8.32;;
18407;SDS011;9330;52.210;21.174;2023-12-20T13:57:57;8.30;;;7.50;;
18407;SDS011;9330;52.210;21.174;2023-12-20T14:00:24;10.68;;;8.80;;
18407;SDS011;9330;52.210;21.174;2023-12-20T14:02:51;11.90;;;9.35;;
18407;SDS011;9330;52.210;21.174;2023-12-20T14:05:18;9.55;;;8.60;;
18407;SDS011;9330;52.210;21.174;2023-12-20T14:07:45;11.90;;;9.10;;
18407;SDS011;9330;52.210;21.174;2023-12-20T14:10:12;8.95;;;7.93;;
18407;SDS011;9330;52.210;21.174;2023-12-20T14:12:39;10.40;;;8.63;;
18407;SDS011;9330;52.210;21.174;2023-12-20T14:15:08;9.77;;;7.95;;
18407;SDS011;9330;52.210;21.174;2023-12-20T14:17:36;10.40;;;8.75;;
18407;SDS011;9330;52.210;21.174;2023-12-20T14:20:03;9.40;;;8.40;;
18407;SDS011;9330;52.210;21.174;2023-12-20T14:22:31;10.07;;;7.97;;
18407;SDS011;9330;52.210;21.174;2023-12-20T14:24:58;10.18;;;7.85;;
18407;SDS011;9330;52.210;21.174;2023-12-20T14:27:25;9.45;;;7.90;;
18407;SDS011;9330;52.210;21.174;2023-12-20T14:29:52;12.73;;;9.38;;
18407;SDS011;9330;52.210;21.174;2023-12-20T14:32:21;9.95;;;7.38;;
18407;SDS011;9330;52.210;21.174;2023-12-20T14:34:48;9.93;;;7.90;;
18407;SDS011;9330;52.210;21.174;2023-12-20T14:37:14;10.85;;;7.18;;
18407;SDS011;9330;52.210;21.174;2023-12-20T14:39:42;10.45;;;7.10;;
18407;SDS011;9330;52.210;21.174;2023-12-20T14:42:09;8.15;;;6.85;;
18407;SDS011;9330;52.210;21.174;2023-12-20T14:44:38;10.60;;;8.07;;
18407;SDS011;9330;52.210;21.174;2023-12-20T14:47:05;8.23;;;7.10;;